Time;durP1;ratioP1;P1;durP2;ratioP2;P2;SDS_P1;SDS_P2;PMS_P1;PMS_P2;Temp;Humidity;BMP_temperature;BMP_pressure;BME280_temperature;BME280_humidity;BME280_pressure;Samples;Min_cycle;Max_cycle;Signal;HPM_P1;HPM_P2
2022/12/24 00:01:56;;;;;;;20.15;7.70;;;3.60;99.90;;;;;;5034222;28;20022;-54
2022/12/24 00:04:22;;;;;;;13.43;6.85;;;3.60;99.90;;;;;;5025858;28;20404;-54
2022/12/24 00:06:47;;;;;;;17.13;6.88;;;3.60;99.90;;;;;;5009363;28;20377;-51
2022/12/24 00:09:13;;;;;;;13.02;7.28;;;3.60;99.90;;;;;;5031323;28;20256;-52
2022/12/24 00:11:38;;;;;;;15.00;6.85;;;3.60;99.90;;;;;;5031364;28;20500;-53
2022/12/24 00:14:04;;;;;;;12.57;7.10;;;3.60;99.90;;;;;;5027315;28;20042;-54
2022/12/24 00:16:29;;;;;;;11.43;6.50;;;3.60;99.90;;;;;;5030517;28;20028;-55
2022/12/24 00:18:55;;;;;;;12.88;6.38;;;3.60;99.90;;;;;;5005205;28;20115;-53
2022/12/24 00:21:21;;;;;;;12.45;6.82;;;3.60;99.90;;;;;;5026554;28;20026;-54
2022/12/24 00:23:46;;;;;;;21.42;6.75;;;3.60;99.90;;;;;;5030146;28;20057;-50
2022/12/24 00:26:12;;;;;;;18.70;6.72;;;3.70;99.90;;;;;;5030591;28;20032;-52
2022/12/24 00:28:39;;;;;;;12.57;6.57;;;3.70;99.90;;;;;;5030772;28;20041;-53
2022/12/24 00:31:09;;;;;;;14.43;6.93;;;3.60;99.90;;;;;;5027178;28;20288;-50
2022/12/24 00:33:34;;;;;;;14.25;7.00;;;3.70;99.90;;;;;;5009305;28;20029;-50
2022/12/24 00:36:00;;;;;;;12.55;6.80;;;3.70;99.90;;;;;;5007469;28;20100;-55
2022/12/24 00:38:25;;;;;;;12.45;6.82;;;3.60;99.90;;;;;;5013233;28;20084;-51
2022/12/24 00:40:51;;;;;;;17.02;6.97;;;3.70;99.90;;;;;;5008959;28;20028;-51
2022/12/24 00:43:16;;;;;;;14.90;6.95;;;3.70;99.90;;;;;;5031277;28;20021;-52
2022/12/24 00:45:42;;;;;;;19.30;8.52;;;3.70;99.90;;;;;;5030997;28;20032;-54
2022/12/24 00:48:07;;;;;;;18.45;8.68;;;3.70;99.90;;;;;;5013641;28;20116;-54
2022/12/24 00:50:33;;;;;;;20.77;10.00;;;3.70;99.90;;;;;;5028823;28;20432;-54
2022/12/24 00:52:58;;;;;;;23.40;8.68;;;3.70;99.90;;;;;;5035417;28;20029;-53
2022/12/24 00:55:24;;;;;;;18.98;8.60;;;3.70;99.90;;;;;;5013796;28;20542;-53
2022/12/24 00:57:50;;;;;;;18.85;8.95;;;3.70;99.90;;;;;;5036134;28;20036;-54
2022/12/24 01:00:16;;;;;;;17.95;9.35;;;3.70;99.90;;;;;;5031228;28;20026;-53
2022/12/24 01:02:42;;;;;;;18.27;9.77;;;3.70;99.90;;;;;;5013057;28;20116;-55
2022/12/24 01:05:10;;;;;;;21.83;9.75;;;3.70;99.90;;;;;;5012776;28;20457;-51
2022/12/24 01:07:38;;;;;;;22.05;9.18;;;3.70;99.90;;;;;;5030817;28;20427;-54
2022/12/24 01:10:05;;;;;;;21.45;9.00;;;3.70;99.90;;;;;;5034254;28;20026;-55
2022/12/24 01:12:31;;;;;;;18.63;9.13;;;3.70;99.90;;;;;;5027478;28;20029;-52
2022/12/24 01:14:56;;;;;;;21.33;10.48;;;3.80;99.90;;;;;;5030085;28;20040;-52
2022/12/24 01:17:22;;;;;;;24.27;11.57;;;3.70;99.90;;;;;;5012609;28;20507;-55
2022/12/24 01:19:47;;;;;;;25.98;10.23;;;3.80;99.90;;;;;;5030580;28;20025;-53
2022/12/24 01:22:13;;;;;;;22.48;10.73;;;3.80;99.90;;;;;;5010039;28;20032;-52
2022/12/24 01:24:40;;;;;;;22.05;9.40;;;3.70;99.90;;;;;;5028779;28;20044;-55
2022/12/24 01:27:06;;;;;;;22.27;9.80;;;3.70;99.90;;;;;;5026976;28;20025;-55
2022/12/24 01:29:31;;;;;;;21.23;10.45;;;3.70;99.90;;;;;;5010298;28;20036;-51
2022/12/24 01:31:57;;;;;;;20.90;9.45;;;3.70;99.90;;;;;;5030090;28;20060;-54
2022/12/24 01:34:22;;;;;;;19.38;9.43;;;3.70;99.90;;;;;;5030035;28;20055;-56
2022/12/24 01:36:48;;;;;;;42.65;13.15;;;3.70;99.90;;;;;;5028423;28;20033;-55
2022/12/24 01:39:14;;;;;;;18.77;10.80;;;3.70;99.90;;;;;;5012180;28;20029;-55
2022/12/24 01:44:30;;;;;;;23.75;10.95;;;3.70;99.90;;;;;;5025413;28;20036;-54
2022/12/24 01:47:13;;;;;;;25.98;10.60;;;3.70;99.90;;;;;;5029068;28;20033;-53
2022/12/24 01:49:42;;;;;;;20.80;11.02;;;3.70;99.90;;;;;;5026330;28;20060;-51
2022/12/24 01:52:21;;;;;;;21.83;10.55;;;3.70;99.90;;;;;;5025986;28;20033;-51
2022/12/24 01:54:51;;;;;;;22.90;11.45;;;3.70;99.90;;;;;;5021470;28;20063;-52
2022/12/24 01:57:49;;;;;;;24.30;11.13;;;3.70;99.90;;;;;;5029883;28;20033;-54
2022/12/24 02:00:15;;;;;;;20.98;10.23;;;3.70;99.90;;;;;;5009894;28;20083;-52
2022/12/24 02:02:44;;;;;;;21.38;10.55;;;3.60;99.90;;;;;;5011959;28;20496;-53
2022/12/24 02:05:28;;;;;;;23.85;11.27;;;3.70;99.90;;;;;;5029541;28;20108;-53
2022/12/24 02:07:55;;;;;;;20.10;10.35;;;3.70;99.90;;;;;;5011942;28;20025;-55
2022/12/24 02:10:21;;;;;;;20.77;10.90;;;3.70;99.90;;;;;;5031503;28;20017;-54
2022/12/24 02:12:48;;;;;;;22.83;11.57;;;3.60;99.90;;;;;;5012172;28;20091;-55
2022/12/24 02:15:15;;;;;;;22.45;10.88;;;3.60;99.90;;;;;;5029251;28;20041;-53
2022/12/24 02:18:04;;;;;;;23.75;10.88;;;3.60;99.90;;;;;;5029321;28;20485;-52
2022/12/24 02:21:01;;;;;;;23.30;11.55;;;3.60;99.90;;;;;;5011908;28;20021;-55
2022/12/24 02:24:01;;;;;;;21.02;10.75;;;3.60;99.90;;;;;;5028800;28;20052;-56
2022/12/24 02:26:58;;;;;;;26.05;11.80;;;3.60;99.90;;;;;;5028892;28;20038;-54
2022/12/24 02:29:54;;;;;;;22.40;11.80;;;3.60;99.90;;;;;;4990911;28;20508;-53
2022/12/24 02:32:34;;;;;;;20.20;11.43;;;3.60;99.90;;;;;;5024926;28;20033;-52
2022/12/24 02:35:18;;;;;;;21.45;9.85;;;3.60;99.90;;;;;;5022246;28;20061;-54
2022/12/24 02:37:52;;;;;;;20.70;9.80;;;3.60;99.90;;;;;;5022517;28;20029;-53
2022/12/24 02:40:24;;;;;;;26.30;12.45;;;3.60;99.90;;;;;;5023802;28;20076;-55
2022/12/24 02:42:55;;;;;;;27.83;12.20;;;3.60;99.90;;;;;;5026872;28;20464;-52
2022/12/24 02:45:27;;;;;;;22.77;11.68;;;3.70;99.90;;;;;;5028371;28;20045;-54
2022/12/24 02:47:54;;;;;;;21.17;11.32;;;3.60;99.90;;;;;;5007502;28;20025;-52
2022/12/24 02:50:21;;;;;;;19.58;11.35;;;3.60;99.90;;;;;;5028169;28;20439;-52
2022/12/24 02:52:47;;;;;;;21.60;11.10;;;3.60;99.90;;;;;;5014231;28;20076;-54
2022/12/24 02:55:16;;;;;;;21.17;11.75;;;3.60;99.90;;;;;;5024355;28;20025;-55
2022/12/24 02:57:52;;;;;;;21.75;12.00;;;3.60;99.90;;;;;;5029032;28;20024;-54
2022/12/24 03:00:19;;;;;;;20.27;11.63;;;3.60;99.90;;;;;;5035925;28;20025;-52
2022/12/24 03:03:01;;;;;;;20.23;11.18;;;3.60;99.90;;;;;;5029203;28;20032;-54
2022/12/24 03:05:50;;;;;;;16.95;10.63;;;3.60;99.90;;;;;;5010891;28;20017;-55
2022/12/24 03:08:32;;;;;;;27.60;11.38;;;3.60;99.90;;;;;;5009114;28;20116;-52
2022/12/24 03:11:09;;;;;;;20.02;10.70;;;3.60;99.90;;;;;;5011194;28;20083;-53
2022/12/24 03:13:35;;;;;;;16.52;10.10;;;3.60;99.90;;;;;;5028099;28;20037;-51
2022/12/24 03:16:05;;;;;;;18.52;10.85;;;3.60;99.90;;;;;;5028092;28;20033;-55
2022/12/24 03:18:31;;;;;;;22.98;10.93;;;3.60;99.90;;;;;;5020835;28;20029;-53
2022/12/24 03:21:06;;;;;;;23.58;10.77;;;3.60;99.90;;;;;;5027882;28;20083;-50
2022/12/24 03:23:33;;;;;;;20.23;10.43;;;3.60;99.90;;;;;;5028828;28;20025;-52
2022/12/24 03:26:03;;;;;;;21.35;10.80;;;3.60;99.90;;;;;;5028796;28;20113;-53
2022/12/24 03:28:29;;;;;;;20.10;9.63;;;3.70;99.90;;;;;;5010750;28;20486;-52
2022/12/24 03:30:59;;;;;;;18.40;10.07;;;3.60;99.90;;;;;;5010107;28;20067;-55
2022/12/24 03:33:24;;;;;;;19.70;10.65;;;3.60;99.90;;;;;;5022905;28;20034;-54
2022/12/24 03:35:50;;;;;;;17.85;9.93;;;3.60;99.90;;;;;;5023753;28;20560;-55
2022/12/24 03:38:15;;;;;;;19.90;10.02;;;3.70;99.90;;;;;;5028548;28;20725;-53
2022/12/24 03:40:41;;;;;;;16.17;8.50;;;3.70;99.90;;;;;;5027892;28;20034;-51
2022/12/24 03:43:06;;;;;;;17.15;9.27;;;3.60;99.90;;;;;;5028720;28;20053;-52
2022/12/24 03:45:32;;;;;;;16.08;8.25;;;3.70;99.90;;;;;;5008713;28;20556;-51
2022/12/24 03:47:57;;;;;;;18.25;8.70;;;3.60;99.90;;;;;;5024162;28;20403;-50
2022/12/24 03:50:23;;;;;;;19.40;9.45;;;3.60;99.90;;;;;;5024110;28;20056;-54
2022/12/24 03:52:48;;;;;;;12.27;8.35;;;3.60;99.90;;;;;;5022871;28;20388;-53
2022/12/24 03:55:14;;;;;;;19.13;9.38;;;3.60;99.90;;;;;;5023411;28;20521;-52
2022/12/24 03:57:39;;;;;;;13.52;8.40;;;3.60;99.90;;;;;;5034284;28;20040;-50
2022/12/24 04:00:06;;;;;;;13.70;8.70;;;3.60;99.90;;;;;;5028117;28;20034;-54
2022/12/24 04:02:31;;;;;;;20.45;8.15;;;3.60;99.90;;;;;;5020861;28;20018;-53
2022/12/24 04:04:57;;;;;;;19.95;8.68;;;3.60;99.90;;;;;;5028136;28;20022;-54
2022/12/24 04:07:22;;;;;;;15.85;8.18;;;3.60;99.90;;;;;;5028276;28;20025;-52
2022/12/24 04:09:48;;;;;;;14.13;8.25;;;3.60;99.90;;;;;;5011001;28;20082;-50
2022/12/24 04:12:14;;;;;;;14.70;8.20;;;3.60;99.90;;;;;;5016002;28;20076;-54
2022/12/24 04:14:39;;;;;;;15.32;8.35;;;3.60;99.90;;;;;;5031231;28;20499;-51
2022/12/24 04:17:05;;;;;;;16.40;8.13;;;3.60;99.90;;;;;;5013878;28;20032;-52
2022/12/24 04:19:30;;;;;;;15.07;9.18;;;3.60;99.90;;;;;;5031712;28;20112;-53
2022/12/24 04:21:56;;;;;;;13.38;7.32;;;3.60;99.90;;;;;;5031373;28;20029;-51
2022/12/24 04:24:22;;;;;;;12.93;7.97;;;3.70;99.90;;;;;;5030070;28;20041;-54
2022/12/24 04:26:47;;;;;;;13.73;7.93;;;3.70;99.90;;;;;;5007756;28;20053;-53
2022/12/24 04:29:13;;;;;;;14.80;8.25;;;3.60;99.90;;;;;;5027982;28;20033;-51
2022/12/24 04:31:38;;;;;;;14.07;7.80;;;3.60;99.90;;;;;;5040621;28;20036;-52
2022/12/24 04:34:04;;;;;;;12.23;7.18;;;3.60;99.90;;;;;;5033410;28;20397;-54
2022/12/24 04:36:29;;;;;;;15.65;8.27;;;3.60;99.90;;;;;;5007022;28;20060;-54
2022/12/24 04:38:55;;;;;;;13.43;7.93;;;3.70;99.90;;;;;;5032310;28;20038;-55
2022/12/24 04:41:22;;;;;;;17.73;8.00;;;3.60;99.90;;;;;;5013260;28;20029;-54
2022/12/24 04:43:48;;;;;;;13.23;7.45;;;3.70;99.90;;;;;;5031393;28;20346;-55
2022/12/24 04:46:20;;;;;;;14.18;8.55;;;3.70;99.90;;;;;;5025160;28;20533;-52
2022/12/24 04:48:48;;;;;;;15.45;7.95;;;3.60;99.90;;;;;;5029868;28;20091;-54
2022/12/24 04:51:15;;;;;;;12.27;7.10;;;3.60;99.90;;;;;;5011831;28;20064;-55
2022/12/24 04:53:41;;;;;;;12.98;7.32;;;3.60;99.90;;;;;;5011966;28;20037;-54
2022/12/24 04:56:12;;;;;;;14.38;8.23;;;3.60;99.90;;;;;;5029382;28;20523;-54
2022/12/24 04:58:37;;;;;;;11.30;6.75;;;3.70;99.90;;;;;;5030911;28;20037;-54
2022/12/24 05:01:10;;;;;;;15.60;7.68;;;3.70;99.90;;;;;;5029743;28;20029;-53
2022/12/24 05:03:35;;;;;;;12.70;7.07;;;3.70;99.90;;;;;;5007362;28;20493;-51
2022/12/24 05:06:06;;;;;;;13.55;8.10;;;3.70;99.90;;;;;;5029699;28;20024;-53
2022/12/24 05:08:33;;;;;;;10.70;6.55;;;3.70;99.90;;;;;;5029361;28;20029;-54
2022/12/24 05:10:59;;;;;;;10.73;6.65;;;3.70;99.90;;;;;;5003790;28;20132;-52
2022/12/24 05:13:25;;;;;;;9.57;6.35;;;3.70;99.90;;;;;;5009460;28;20036;-50
2022/12/24 05:15:51;;;;;;;9.38;6.63;;;3.60;99.90;;;;;;5136990;22;20056;-61
2022/12/24 05:18:16;;;;;;;14.63;6.43;;;3.70;99.90;;;;;;5050342;28;20481;-60
2022/12/24 05:20:42;;;;;;;10.40;5.95;;;3.70;99.90;;;;;;5050474;28;20478;-61
2022/12/24 05:28:44;;;;;;;11.63;6.47;;;3.70;99.90;;;;;;5048070;28;20589;-61
2022/12/24 05:31:09;;;;;;;12.82;6.95;;;3.70;99.90;;;;;;5041845;28;20029;-62
2022/12/24 05:33:35;;;;;;;11.38;7.53;;;3.70;99.90;;;;;;5050208;28;20540;-62
2022/12/24 05:36:00;;;;;;;13.20;6.53;;;3.70;99.90;;;;;;5026927;28;20502;-61
2022/12/24 05:38:26;;;;;;;12.25;6.35;;;3.70;99.90;;;;;;5049155;28;20025;-61
2022/12/24 05:40:51;;;;;;;11.13;6.60;;;3.70;99.90;;;;;;5027875;28;20029;-59
2022/12/24 05:43:17;;;;;;;13.52;6.60;;;3.70;99.90;;;;;;5042044;28;20037;-60
2022/12/24 05:45:42;;;;;;;10.48;6.65;;;3.70;99.90;;;;;;5044633;28;20036;-61
2022/12/24 05:48:08;;;;;;;15.05;6.13;;;3.70;99.90;;;;;;5046410;28;20036;-61
2022/12/24 05:50:35;;;;;;;10.52;6.82;;;3.70;99.90;;;;;;5049824;28;20024;-61
2022/12/24 05:53:00;;;;;;;16.38;7.32;;;3.70;99.90;;;;;;5046450;28;20025;-61
2022/12/24 05:55:26;;;;;;;12.18;6.18;;;3.70;99.90;;;;;;5048192;28;20021;-61
2022/12/24 05:57:51;;;;;;;10.13;6.22;;;3.70;99.90;;;;;;5041513;28;20510;-61
2022/12/24 06:00:17;;;;;;;13.32;6.50;;;3.70;99.90;;;;;;5046554;28;20553;-61
2022/12/24 06:02:43;;;;;;;12.50;6.32;;;3.70;99.90;;;;;;5038741;28;20036;-61
2022/12/24 06:05:08;;;;;;;9.88;6.72;;;3.70;99.90;;;;;;5046559;28;20028;-61
2022/12/24 06:07:34;;;;;;;11.98;6.95;;;3.70;99.90;;;;;;5031470;28;20024;-59
2022/12/24 06:09:59;;;;;;;9.32;5.53;;;3.70;99.90;;;;;;5046231;28;20067;-61
2022/12/24 06:12:25;;;;;;;13.82;6.30;;;3.70;99.90;;;;;;5046025;28;20043;-61
2022/12/24 06:14:51;;;;;;;13.55;6.30;;;3.70;99.90;;;;;;5040479;28;20033;-61
2022/12/24 06:17:19;;;;;;;10.23;5.80;;;3.70;99.90;;;;;;5047421;28;20052;-61
2022/12/24 06:19:45;;;;;;;11.05;6.22;;;3.70;99.90;;;;;;5044335;28;20013;-60
2022/12/24 06:22:10;;;;;;;17.35;6.95;;;3.70;99.90;;;;;;5046688;28;20668;-60
2022/12/24 06:24:36;;;;;;;11.95;6.90;;;3.70;99.90;;;;;;5044253;28;20554;-59
2022/12/24 06:27:02;;;;;;;10.65;6.82;;;3.70;99.90;;;;;;5039591;28;20025;-61
2022/12/24 06:29:27;;;;;;;15.13;6.72;;;3.70;99.90;;;;;;5046204;28;20039;-61
2022/12/24 06:31:53;;;;;;;13.10;6.20;;;3.70;99.90;;;;;;5039999;28;20496;-60
2022/12/24 06:34:18;;;;;;;12.50;6.47;;;3.70;99.90;;;;;;5045591;28;20441;-60
2022/12/24 06:36:44;;;;;;;10.68;6.80;;;3.70;99.90;;;;;;5048416;28;20393;-61
2022/12/24 06:39:09;;;;;;;10.38;5.78;;;3.70;99.90;;;;;;5049325;28;20393;-61
2022/12/24 06:41:35;;;;;;;7.80;5.50;;;3.70;99.90;;;;;;5048352;28;20407;-61
2022/12/24 06:44:01;;;;;;;8.63;5.13;;;3.70;99.90;;;;;;5047248;28;20143;-61
2022/12/24 06:46:26;;;;;;;11.45;5.80;;;3.70;99.90;;;;;;5043112;28;20021;-60
2022/12/24 06:48:53;;;;;;;11.85;5.68;;;3.70;99.90;;;;;;5046681;28;20021;-61
2022/12/24 06:51:19;;;;;;;12.68;6.57;;;3.70;99.90;;;;;;5024162;28;20074;-60
2022/12/24 06:53:46;;;;;;;11.02;5.38;;;3.70;99.90;;;;;;5045263;28;20100;-61
2022/12/24 06:56:13;;;;;;;10.07;5.78;;;3.80;99.90;;;;;;5048203;28;20033;-60
2022/12/24 06:58:39;;;;;;;10.80;5.93;;;3.80;99.90;;;;;;5044511;28;20025;-60
2022/12/24 07:01:07;;;;;;;9.98;5.57;;;3.80;99.90;;;;;;5048390;28;20071;-61
2022/12/24 07:03:34;;;;;;;13.60;5.65;;;3.80;99.90;;;;;;5043557;28;20481;-60
2022/12/24 07:05:59;;;;;;;8.73;5.55;;;3.80;99.90;;;;;;5045162;28;20029;-59
2022/12/24 07:08:25;;;;;;;8.55;5.30;;;3.70;99.90;;;;;;5048277;28;20044;-61
2022/12/24 07:10:51;;;;;;;7.40;5.18;;;3.70;99.90;;;;;;5045467;28;20033;-60
2022/12/24 07:13:18;;;;;;;8.35;4.75;;;3.80;99.90;;;;;;5047692;28;20033;-61
2022/12/24 07:15:44;;;;;;;8.88;5.22;;;3.70;99.90;;;;;;5041722;28;20112;-61
2022/12/24 07:18:11;;;;;;;8.40;5.60;;;3.70;99.90;;;;;;5046017;28;20051;-61
2022/12/24 07:20:36;;;;;;;7.25;4.30;;;3.70;99.90;;;;;;5029520;28;20032;-61
2022/12/24 07:23:02;;;;;;;8.25;5.10;;;3.70;99.90;;;;;;5030442;28;20017;-61
2022/12/24 07:25:28;;;;;;;8.55;5.13;;;3.70;99.90;;;;;;5047614;28;20029;-61
2022/12/24 07:27:53;;;;;;;7.32;4.72;;;3.70;99.90;;;;;;5044311;28;20033;-61
2022/12/24 07:30:19;;;;;;;8.07;5.07;;;3.80;99.90;;;;;;5046292;28;20025;-60
2022/12/24 07:32:44;;;;;;;9.18;4.68;;;3.70;99.90;;;;;;5047369;28;20079;-61
2022/12/24 07:35:10;;;;;;;9.82;4.82;;;3.70;99.90;;;;;;5047525;28;20419;-61
2022/12/24 07:37:36;;;;;;;6.93;4.03;;;3.70;99.90;;;;;;5047644;28;20027;-61
2022/12/24 07:40:05;;;;;;;6.38;4.20;;;3.70;99.90;;;;;;5043486;28;20078;-61
2022/12/24 07:42:30;;;;;;;6.47;4.72;;;3.70;99.90;;;;;;5035736;28;20017;-60
2022/12/24 07:44:56;;;;;;;8.52;4.13;;;3.70;99.90;;;;;;5042881;28;20083;-61
2022/12/24 07:47:21;;;;;;;5.95;4.32;;;3.80;99.90;;;;;;5026813;28;20032;-60
2022/12/24 07:49:47;;;;;;;8.00;4.20;;;3.70;99.90;;;;;;5050047;28;20035;-61
2022/12/24 07:52:12;;;;;;;6.88;4.80;;;3.70;99.90;;;;;;5051765;28;20065;-61
2022/12/24 07:54:38;;;;;;;7.25;4.30;;;3.70;99.90;;;;;;5041055;28;20052;-59
2022/12/24 07:57:04;;;;;;;7.50;4.50;;;3.70;99.90;;;;;;5051956;28;20028;-61
2022/12/24 07:59:29;;;;;;;6.10;4.13;;;3.80;99.90;;;;;;5027039;28;20417;-61
2022/12/24 08:01:55;;;;;;;7.57;4.32;;;3.80;99.90;;;;;;5051280;28;20098;-60
2022/12/24 08:04:20;;;;;;;6.60;4.10;;;3.80;99.90;;;;;;5042891;28;20029;-62
2022/12/24 08:06:46;;;;;;;4.80;3.70;;;3.80;99.90;;;;;;5050750;28;20025;-61
2022/12/24 08:09:13;;;;;;;8.38;3.80;;;3.80;99.90;;;;;;5051094;28;20017;-59
2022/12/24 08:11:38;;;;;;;9.23;4.45;;;3.80;99.90;;;;;;5050626;28;20021;-59
2022/12/24 08:14:04;;;;;;;5.10;3.67;;;3.80;99.90;;;;;;5051583;28;20025;-59
2022/12/24 08:16:29;;;;;;;5.68;3.67;;;3.80;99.90;;;;;;5031432;28;20392;-61
2022/12/24 08:18:55;;;;;;;6.82;4.70;;;3.80;99.90;;;;;;5051642;28;20017;-60
2022/12/24 08:21:20;;;;;;;6.45;4.45;;;3.80;99.90;;;;;;5049793;28;20100;-61
2022/12/24 08:23:46;;;;;;;7.03;3.45;;;3.80;99.90;;;;;;5049599;28;20041;-61
2022/12/24 08:26:12;;;;;;;5.05;4.18;;;3.80;99.90;;;;;;5042798;28;20025;-61
2022/12/24 08:28:38;;;;;;;6.22;4.13;;;3.80;99.90;;;;;;5048511;28;20035;-60
2022/12/24 08:31:04;;;;;;;5.00;3.55;;;3.80;99.90;;;;;;5048873;28;20396;-60
2022/12/24 08:33:31;;;;;;;6.72;3.58;;;3.80;99.90;;;;;;5050748;28;20420;-59
2022/12/24 08:35:56;;;;;;;5.78;3.83;;;3.80;99.90;;;;;;5045884;28;20050;-61
2022/12/24 08:38:22;;;;;;;6.75;4.75;;;3.80;99.90;;;;;;5033288;28;20017;-60
2022/12/24 08:40:48;;;;;;;6.63;4.03;;;3.80;99.90;;;;;;5042519;28;20061;-60
2022/12/24 08:43:18;;;;;;;5.10;3.63;;;3.80;99.90;;;;;;5049358;28;20040;-60
2022/12/24 08:45:45;;;;;;;5.00;3.67;;;3.80;99.90;;;;;;5049461;28;20021;-61
2022/12/24 08:48:11;;;;;;;5.00;3.70;;;3.80;99.90;;;;;;5045684;28;20021;-59
2022/12/24 08:50:41;;;;;;;4.80;3.67;;;3.80;99.90;;;;;;5050980;28;20029;-61
2022/12/24 08:53:07;;;;;;;6.53;3.78;;;3.80;99.90;;;;;;5029724;28;20037;-61
2022/12/24 08:55:33;;;;;;;5.13;3.90;;;3.80;99.90;;;;;;5049392;28;20098;-59
2022/12/24 08:58:00;;;;;;;6.32;4.05;;;3.80;99.90;;;;;;5045470;28;20064;-60
2022/12/24 09:00:26;;;;;;;6.85;3.60;;;3.90;99.90;;;;;;5049244;28;20116;-60
2022/12/24 09:02:51;;;;;;;6.07;4.32;;;3.90;99.90;;;;;;5045889;28;20119;-61
2022/12/24 09:05:17;;;;;;;4.47;3.53;;;3.90;99.90;;;;;;5030234;28;20045;-61
2022/12/24 09:07:43;;;;;;;5.63;4.22;;;3.90;99.90;;;;;;5050887;28;20385;-61
2022/12/24 09:10:10;;;;;;;5.22;4.38;;;3.90;99.90;;;;;;5047201;28;20070;-61
2022/12/24 09:12:36;;;;;;;7.00;4.18;;;3.90;99.90;;;;;;5040925;28;20030;-62
2022/12/24 09:15:03;;;;;;;6.13;3.92;;;3.90;99.90;;;;;;5041899;28;20338;-62
2022/12/24 09:17:28;;;;;;;6.00;4.45;;;3.90;99.90;;;;;;5031270;28;20598;-61
2022/12/24 09:19:54;;;;;;;7.40;4.20;;;3.90;99.90;;;;;;5043809;28;20022;-61
2022/12/24 09:22:21;;;;;;;6.72;4.07;;;3.90;99.90;;;;;;5027720;28;20362;-61
2022/12/24 09:24:46;;;;;;;5.30;3.85;;;3.90;99.90;;;;;;5049710;28;20021;-61
2022/12/24 09:27:12;;;;;;;5.53;4.10;;;3.90;99.90;;;;;;5045932;28;20087;-61
2022/12/24 09:29:39;;;;;;;5.80;3.83;;;3.90;99.90;;;;;;5047564;28;20033;-61
2022/12/24 09:32:05;;;;;;;4.90;3.60;;;3.90;99.90;;;;;;5023079;28;20047;-60
2022/12/24 09:34:31;;;;;;;6.03;3.90;;;3.90;99.90;;;;;;5048539;28;20021;-61
2022/12/24 09:36:58;;;;;;;5.97;3.65;;;4.00;99.90;;;;;;5045588;28;20028;-61
2022/12/24 09:39:24;;;;;;;5.03;4.15;;;4.00;99.90;;;;;;5048732;28;20109;-60
2022/12/24 09:42:15;;;;;;;7.38;4.70;;;4.00;99.90;;;;;;5050579;28;20096;-61
2022/12/24 09:44:44;;;;;;;6.10;4.15;;;4.00;99.90;;;;;;5045383;28;20401;-61
2022/12/24 09:47:34;;;;;;;5.95;4.85;;;4.00;99.90;;;;;;5046705;28;20024;-61
2022/12/24 09:50:03;;;;;;;5.13;3.92;;;4.00;99.90;;;;;;5047394;28;20060;-61
2022/12/24 09:52:37;;;;;;;6.05;4.28;;;4.00;99.90;;;;;;5046689;28;20026;-60
2022/12/24 09:55:19;;;;;;;5.65;3.78;;;4.00;99.90;;;;;;5046502;28;20029;-61
2022/12/24 09:57:48;;;;;;;6.47;3.97;;;4.10;99.90;;;;;;5040290;28;20358;-61
2022/12/24 10:00:27;;;;;;;6.75;4.53;;;4.10;99.90;;;;;;5047604;28;20029;-61
2022/12/24 10:02:52;;;;;;;7.93;5.28;;;4.10;99.90;;;;;;5044282;28;20018;-61
2022/12/24 10:05:40;;;;;;;6.90;5.35;;;4.10;99.90;;;;;;5046021;28;20021;-61
2022/12/24 10:08:38;;;;;;;10.13;5.68;;;4.10;99.90;;;;;;5039791;28;20028;-61
2022/12/24 10:11:37;;;;;;;8.70;4.88;;;4.10;99.90;;;;;;5045880;28;20017;-61
2022/12/24 10:14:17;;;;;;;9.38;5.85;;;4.20;99.90;;;;;;5001385;28;20520;-62
2022/12/24 10:17:27;;;;;;;7.38;5.40;;;4.20;99.90;;;;;;5044363;28;20025;-61
2022/12/24 10:20:07;;;;;;;6.75;5.40;;;4.20;99.90;;;;;;5026845;28;20401;-62
2022/12/24 10:22:49;;;;;;;8.23;5.25;;;4.20;99.90;;;;;;5042444;28;20028;-61
2022/12/24 10:25:32;;;;;;;6.93;4.93;;;4.20;99.90;;;;;;5047998;28;20113;-61
2022/12/24 10:28:01;;;;;;;5.88;4.60;;;4.20;99.90;;;;;;5020244;28;20353;-61
2022/12/24 10:30:27;;;;;;;8.88;5.43;;;4.20;99.90;;;;;;5048378;28;20029;-61
2022/12/24 10:32:54;;;;;;;8.02;5.43;;;4.30;99.90;;;;;;5049232;28;20500;-61
2022/12/24 10:35:31;;;;;;;10.43;6.15;;;4.30;99.90;;;;;;5048397;28;20036;-61
2022/12/24 10:37:57;;;;;;;10.48;6.13;;;4.30;99.90;;;;;;5030231;28;20032;-59
2022/12/24 10:40:41;;;;;;;6.95;5.40;;;4.30;99.90;;;;;;5046490;28;20025;-59
2022/12/24 10:43:19;;;;;;;11.85;7.88;;;4.30;99.90;;;;;;5044266;28;20107;-61
2022/12/24 10:45:52;;;;;;;13.27;7.97;;;4.30;99.90;;;;;;5042480;28;20104;-60
2022/12/24 10:48:24;;;;;;;8.52;6.43;;;4.30;99.90;;;;;;5045736;28;20032;-59
2022/12/24 10:50:56;;;;;;;9.68;6.82;;;4.30;99.90;;;;;;5048749;28;20055;-61
2022/12/24 10:53:34;;;;;;;9.70;6.75;;;4.40;99.90;;;;;;5044763;28;20025;-59
2022/12/24 10:56:04;;;;;;;7.75;6.90;;;4.40;99.90;;;;;;5047875;28;20035;-60
2022/12/24 10:58:30;;;;;;;8.20;5.93;;;4.40;99.90;;;;;;5044460;28;20116;-61
2022/12/24 11:00:55;;;;;;;12.70;7.82;;;4.40;99.90;;;;;;5048073;28;20033;-61
2022/12/24 11:03:27;;;;;;;9.95;7.20;;;4.40;99.90;;;;;;5025462;28;20021;-61
2022/12/24 11:06:09;;;;;;;9.00;7.30;;;4.40;99.90;;;;;;5046221;28;20045;-60
2022/12/24 11:08:37;;;;;;;9.85;7.18;;;4.40;99.90;;;;;;5044245;28;20021;-60
2022/12/24 11:11:10;;;;;;;9.75;8.02;;;4.40;99.90;;;;;;5044089;28;20047;-61
2022/12/24 11:13:42;;;;;;;10.65;7.97;;;4.50;99.90;;;;;;5048482;28;20701;-62
2022/12/24 11:16:50;;;;;;;10.82;7.57;;;4.50;99.90;;;;;;5042454;22;20049;-56
2022/12/24 11:19:29;;;;;;;8.55;6.82;;;4.50;99.90;;;;;;4964799;28;20076;-55
2022/12/24 11:22:00;;;;;;;11.18;6.95;;;4.50;99.90;;;;;;4970389;28;20518;-57
2022/12/24 11:24:29;;;;;;;9.18;6.35;;;4.50;99.90;;;;;;4995224;28;20092;-57
2022/12/24 11:27:29;;;;;;;7.90;6.35;;;4.50;99.90;;;;;;5012613;28;20026;-55
2022/12/24 11:30:25;;;;;;;8.50;6.15;;;4.60;99.90;;;;;;5013051;28;20112;-56
2022/12/24 11:33:00;;;;;;;8.73;6.55;;;4.60;99.90;;;;;;4989943;28;20029;-54
2022/12/24 11:35:27;;;;;;;8.63;6.32;;;4.70;99.90;;;;;;5012937;28;20037;-53
2022/12/24 11:37:59;;;;;;;8.50;5.97;;;4.60;99.90;;;;;;5012702;28;20030;-53
2022/12/24 11:40:31;;;;;;;8.35;6.00;;;4.70;99.90;;;;;;5012788;28;20056;-55
2022/12/24 11:43:01;;;;;;;8.63;5.53;;;4.70;99.90;;;;;;5012429;28;20026;-54
2022/12/24 11:45:32;;;;;;;7.75;5.97;;;4.70;99.90;;;;;;5011785;28;20034;-57
2022/12/24 11:47:59;;;;;;;11.13;6.32;;;4.80;99.90;;;;;;5012572;28;20033;-56
2022/12/24 11:50:34;;;;;;;8.38;5.53;;;4.90;99.90;;;;;;5012607;28;20021;-56
2022/12/24 11:53:10;;;;;;;8.18;5.95;;;4.90;99.90;;;;;;5012629;28;20022;-55
2022/12/24 11:55:50;;;;;;;8.65;6.50;;;5.00;99.90;;;;;;5011675;28;20095;-57
2022/12/24 11:58:36;;;;;;;8.32;5.95;;;5.00;99.90;;;;;;5012367;28;20028;-57
2022/12/24 12:01:17;;;;;;;8.38;5.35;;;5.00;99.90;;;;;;5008877;28;20121;-56
2022/12/24 12:03:50;;;;;;;7.18;5.88;;;5.00;99.90;;;;;;5012064;28;20623;-56
2022/12/24 12:06:18;;;;;;;7.70;6.22;;;5.00;99.90;;;;;;5011278;28;20045;-56
2022/12/24 12:08:45;;;;;;;7.22;6.10;;;5.00;99.90;;;;;;5012317;28;20100;-57
2022/12/24 12:11:13;;;;;;;7.45;6.32;;;5.00;99.90;;;;;;5012232;28;20101;-54
2022/12/24 12:13:43;;;;;;;6.65;5.63;;;5.10;99.90;;;;;;5012436;28;20046;-57
2022/12/24 12:16:59;;;;;;;9.35;5.85;;;5.10;99.90;;;;;;5011638;28;20034;-57
2022/12/24 12:19:18;;;;;;;7.80;6.38;;;5.10;99.90;;;;;;5010138;28;20489;-57
2022/12/24 12:21:47;;;;;;;8.10;4.90;;;5.10;99.90;;;;;;5012319;28;20105;-55
2022/12/24 12:24:46;;;;;;;8.25;6.72;;;5.10;99.90;;;;;;4994409;28;20378;-55
2022/12/24 12:27:40;;;;;;;7.47;6.15;;;5.10;99.90;;;;;;4997802;28;20030;-57
2022/12/24 12:30:14;;;;;;;7.68;6.13;;;5.10;99.90;;;;;;4994262;28;20524;-56
2022/12/24 12:33:19;;;;;;;10.38;7.43;;;5.10;99.90;;;;;;5010825;28;20022;-57
2022/12/24 12:35:45;;;;;;;10.18;7.00;;;5.10;99.90;;;;;;5006776;28;20040;-55
2022/12/24 12:38:29;;;;;;;7.93;6.07;;;5.20;99.90;;;;;;5011212;28;20038;-56
2022/12/24 12:40:58;;;;;;;8.07;6.70;;;5.20;99.90;;;;;;5011844;28;20432;-56
2022/12/24 12:43:59;;;;;;;8.65;6.25;;;5.30;99.90;;;;;;5011700;28;20516;-56
2022/12/24 12:46:51;;;;;;;9.30;6.68;;;5.30;99.90;;;;;;5011289;28;20521;-54
2022/12/24 12:49:32;;;;;;;8.80;7.13;;;5.30;99.90;;;;;;4983885;28;20037;-57
2022/12/24 12:52:18;;;;;;;8.23;6.53;;;5.30;99.90;;;;;;4994336;28;20489;-56
2022/12/24 12:54:48;;;;;;;8.05;5.88;;;5.30;99.90;;;;;;5011306;28;20118;-52
2022/12/24 12:57:18;;;;;;;10.35;7.68;;;5.30;99.90;;;;;;5011347;28;20034;-51
2022/12/24 12:59:56;;;;;;;8.38;6.82;;;5.40;99.90;;;;;;5011375;28;20025;-54
2022/12/24 13:02:36;;;;;;;9.30;6.90;;;5.40;99.90;;;;;;5009905;28;21613;-52
2022/12/24 13:05:58;;;;;;;8.63;6.32;;;5.40;99.90;;;;;;5011334;28;20101;-57
2022/12/24 13:08:45;;;;;;;9.00;7.57;;;5.50;99.90;;;;;;4969483;28;20034;-56
2022/12/24 13:11:31;;;;;;;8.30;6.43;;;5.50;99.90;;;;;;4961522;28;20483;-55
2022/12/24 13:14:32;;;;;;;8.85;7.07;;;5.50;99.90;;;;;;5003805;28;20064;-55
2022/12/24 13:17:09;;;;;;;8.23;6.78;;;5.50;99.90;;;;;;4948816;28;20031;-55